createdAt,value
2023-05-13T00:01:24.448Z,100.00
2023-05-13T00:03:53.753Z,100.00
2023-05-13T00:06:24.209Z,100.00
2023-05-13T00:08:53.384Z,97.97
2023-05-13T00:11:22.184Z,97.79
2023-05-13T00:13:51.098Z,96.85
2023-05-13T00:16:20.545Z,94.80
2023-05-13T00:18:49.908Z,94.45
2023-05-13T00:21:19.034Z,93.12
2023-05-13T00:23:49.713Z,94.47
2023-05-13T00:26:18.873Z,95.28
2023-05-13T00:28:50.812Z,96.05
2023-05-13T00:31:19.892Z,97.38
2023-05-13T00:33:49.156Z,98.25
2023-05-13T00:36:18.608Z,98.60
2023-05-13T00:38:49.187Z,99.02
2023-05-13T00:41:19.800Z,99.30
2023-05-13T00:43:48.874Z,100.00
2023-05-13T00:46:18.430Z,100.00
2023-05-13T00:48:47.671Z,100.00
2023-05-13T00:51:16.925Z,100.00
2023-05-13T00:53:47.533Z,100.00
2023-05-13T00:56:22.077Z,100.00
2023-05-13T00:58:51.392Z,100.00
2023-05-13T01:01:30.109Z,100.00
2023-05-13T01:04:09.849Z,100.00
2023-05-13T01:06:47.110Z,100.00
2023-05-13T01:09:23.260Z,100.00
2023-05-13T01:11:57.012Z,100.00
2023-05-13T01:14:30.640Z,100.00
2023-05-13T01:17:06.304Z,100.00
2023-05-13T01:19:43.193Z,100.00
2023-05-13T01:22:14.344Z,99.35
2023-05-13T01:24:45.774Z,99.70
2023-05-13T01:27:15.460Z,99.72
2023-05-13T01:29:45.571Z,97.95
2023-05-13T01:32:17.903Z,98.46
2023-05-13T01:34:48.122Z,98.49
2023-05-13T01:37:18.841Z,98.02
2023-05-13T01:39:49.074Z,98.17
2023-05-13T01:42:18.562Z,97.84
2023-05-13T01:44:47.894Z,96.93
2023-05-13T01:47:17.130Z,96.91
2023-05-13T01:49:48.531Z,97.41
2023-05-13T01:52:19.028Z,97.29
2023-05-13T01:54:48.047Z,96.95
2023-05-13T01:57:19.671Z,96.83
2023-05-13T01:59:49.028Z,96.96
2023-05-13T02:07:31.394Z,95.62
2023-05-13T02:10:00.759Z,94.10
2023-05-13T02:12:30.177Z,95.13
2023-05-13T02:14:59.557Z,95.15
2023-05-13T02:17:28.786Z,94.89
2023-05-13T02:19:57.778Z,94.90
2023-05-13T02:22:28.922Z,94.43
2023-05-13T02:24:59.455Z,94.29
2023-05-13T02:27:28.310Z,94.31
2023-05-13T02:29:57.757Z,94.21
2023-05-13T02:32:26.870Z,93.97
2023-05-13T02:34:56.012Z,94.17
2023-05-13T02:37:27.875Z,93.92
2023-05-13T02:40:08.171Z,94.45
2023-05-13T02:42:37.391Z,94.55
2023-05-13T02:45:07.622Z,94.00
2023-05-13T02:47:40.122Z,94.21
2023-05-13T02:50:10.707Z,93.79
2023-05-13T02:52:40.600Z,94.51
2023-05-13T02:55:12.003Z,95.02
2023-05-13T02:57:41.149Z,95.42
2023-05-13T03:00:11.185Z,95.78
2023-05-13T03:02:40.533Z,96.51
2023-05-13T03:05:10.451Z,96.78
2023-05-13T03:07:39.500Z,97.57
2023-05-13T03:10:12.559Z,97.71
2023-05-13T03:12:43.427Z,98.31
2023-05-13T03:15:15.999Z,99.97
2023-05-13T03:17:46.086Z,100.00
2023-05-13T03:20:15.195Z,100.00
2023-05-13T03:22:44.355Z,100.00
2023-05-13T03:25:15.337Z,100.00
2023-05-13T03:27:52.494Z,100.00
2023-05-13T03:30:23.945Z,100.00
2023-05-13T03:33:04.300Z,100.00
2023-05-13T03:35:33.602Z,99.65
2023-05-13T03:38:03.016Z,99.92
2023-05-13T03:40:34.067Z,100.00
2023-05-13T03:43:03.420Z,100.00
2023-05-13T03:45:33.387Z,99.71
2023-05-13T03:48:08.098Z,99.69
2023-05-13T03:50:37.312Z,100.00
2023-05-13T03:53:07.176Z,100.00
2023-05-13T03:55:40.167Z,100.00
2023-05-13T03:58:13.371Z,100.00
2023-05-13T04:00:42.745Z,100.00
2023-05-13T04:03:14.282Z,100.00
2023-05-13T04:05:44.256Z,100.00
2023-05-13T04:08:16.995Z,100.00
2023-05-13T04:10:47.251Z,100.00
2023-05-13T04:13:16.650Z,100.00
2023-05-13T04:15:47.733Z,100.00
2023-05-13T04:18:16.740Z,100.00
2023-05-13T04:20:46.240Z,100.00
2023-05-13T04:23:19.453Z,100.00
2023-05-13T04:25:53.705Z,100.00
2023-05-13T04:28:23.184Z,100.00
2023-05-13T04:30:54.466Z,100.00
2023-05-13T04:33:23.905Z,100.00
2023-05-13T04:35:52.990Z,100.00
2023-05-13T04:38:21.982Z,100.00
2023-05-13T04:40:53.627Z,100.00
2023-05-13T04:43:30.719Z,100.00
2023-05-13T04:46:01.330Z,100.00
2023-05-13T04:48:30.565Z,100.00
2023-05-13T04:51:00.665Z,100.00
2023-05-13T04:53:31.370Z,100.00
2023-05-13T04:56:05.558Z,100.00
2023-05-13T04:58:34.686Z,100.00
2023-05-13T05:01:06.584Z,100.00
2023-05-13T05:03:35.744Z,100.00
2023-05-13T05:06:05.163Z,100.00
2023-05-13T05:08:34.222Z,100.00
2023-05-13T05:11:04.354Z,100.00
2023-05-13T05:13:35.299Z,100.00
2023-05-13T05:16:09.642Z,100.00
2023-05-13T05:18:41.299Z,100.00
2023-05-13T05:21:10.368Z,100.00
2023-05-13T05:23:42.426Z,100.00
2023-05-13T05:26:12.848Z,100.00
2023-05-13T05:28:44.492Z,100.00
2023-05-13T05:31:14.690Z,100.00
2023-05-13T05:33:43.535Z,100.00
2023-05-13T05:36:14.577Z,100.00
2023-05-13T05:38:43.266Z,99.03
2023-05-13T05:41:14.540Z,99.55
2023-05-13T05:43:43.377Z,98.19
2023-05-13T05:46:12.166Z,99.56
2023-05-13T05:48:41.016Z,98.33
2023-05-13T05:51:10.395Z,98.42
2023-05-13T05:53:41.113Z,97.33
2023-05-13T05:56:14.665Z,97.99
2023-05-13T05:58:44.221Z,98.55
2023-05-13T06:01:15.733Z,98.28
2023-05-13T06:03:45.984Z,97.35
2023-05-13T06:06:14.912Z,96.91
2023-05-13T06:08:43.649Z,95.96
2023-05-13T06:11:13.752Z,95.79
2023-05-13T06:13:45.157Z,95.25
2023-05-13T06:16:13.950Z,96.49
2023-05-13T06:18:43.251Z,96.43
2023-05-13T06:21:12.064Z,96.75
2023-05-13T06:23:42.272Z,96.17
2023-05-13T06:26:11.058Z,95.58
2023-05-13T06:28:41.172Z,93.63
2023-05-13T06:31:09.998Z,93.92
2023-05-13T06:33:39.245Z,91.82
2023-05-13T06:36:09.423Z,93.62
2023-05-13T06:38:40.689Z,92.41
2023-05-13T06:41:09.768Z,93.46
2023-05-13T06:43:41.450Z,91.52
2023-05-13T06:46:36.598Z,90.10
2023-05-13T06:49:05.418Z,88.02
2023-05-13T06:51:36.651Z,88.54
2023-05-13T06:54:05.534Z,87.81
2023-05-13T06:56:35.477Z,88.13
2023-05-13T06:59:08.510Z,89.21
2023-05-13T07:01:37.384Z,87.05
2023-05-13T07:04:09.008Z,84.97
2023-05-13T07:06:40.351Z,83.66
2023-05-13T07:09:09.837Z,83.37
2023-05-13T07:11:39.122Z,80.89
2023-05-13T07:14:09.595Z,82.12
2023-05-13T07:16:38.514Z,82.48
2023-05-13T07:19:12.334Z,78.47
2023-05-13T07:21:41.380Z,77.67
2023-05-13T07:24:10.220Z,77.52
2023-05-13T07:26:39.835Z,77.26
2023-05-13T07:29:10.070Z,78.65
2023-05-13T07:31:41.352Z,77.42
2023-05-13T07:34:10.185Z,73.48
2023-05-13T07:36:39.078Z,74.65
2023-05-13T07:39:08.788Z,73.05
2023-05-13T07:41:38.097Z,73.68
2023-05-13T07:44:11.745Z,73.12
2023-05-13T07:46:44.533Z,73.51
2023-05-13T07:49:13.523Z,69.75
2023-05-13T07:51:42.479Z,70.91
2023-05-13T07:54:11.590Z,70.55
2023-05-13T07:56:40.473Z,70.75
2023-05-13T07:59:09.464Z,69.86
2023-05-13T08:01:38.583Z,69.94
2023-05-13T08:04:08.958Z,70.10
2023-05-13T08:06:38.074Z,71.09
2023-05-13T08:09:09.501Z,71.30
2023-05-13T08:11:38.168Z,67.38
2023-05-13T08:14:07.340Z,64.32
2023-05-13T08:16:37.052Z,66.39
2023-05-13T08:19:06.055Z,67.01
2023-05-13T08:21:36.174Z,66.18
2023-05-13T08:24:07.893Z,66.20
2023-05-13T08:26:36.842Z,65.26
2023-05-13T08:29:05.948Z,65.96
2023-05-13T08:31:34.804Z,65.78
2023-05-13T08:34:03.870Z,67.11
2023-05-13T08:36:32.744Z,68.36
2023-05-13T08:39:03.084Z,65.46
2023-05-13T08:41:32.304Z,63.76
2023-05-13T08:44:01.849Z,66.07
2023-05-13T08:46:33.757Z,65.38
2023-05-13T08:49:02.833Z,66.02
2023-05-13T08:51:32.221Z,61.17
2023-05-13T08:54:02.634Z,61.35
2023-05-13T08:56:31.484Z,59.62
2023-05-13T08:59:00.382Z,61.99
2023-05-13T09:01:31.172Z,61.09
2023-05-13T09:04:06.443Z,59.42
2023-05-13T09:06:37.784Z,59.35
2023-05-13T09:09:09.754Z,61.03
2023-05-13T09:11:41.037Z,60.68
2023-05-13T09:14:12.839Z,59.34
2023-05-13T09:16:43.569Z,60.25
2023-05-13T09:19:13.785Z,59.66
2023-05-13T09:21:45.368Z,60.15
2023-05-13T09:24:18.927Z,59.06
2023-05-13T09:26:48.522Z,59.64
2023-05-13T09:29:23.240Z,61.58
2023-05-13T09:31:53.919Z,63.11
2023-05-13T09:34:30.842Z,65.38
2023-05-13T09:37:01.619Z,65.57
2023-05-13T09:39:33.991Z,62.35
2023-05-13T09:42:05.344Z,61.28
2023-05-13T09:44:37.029Z,59.40
2023-05-13T09:47:06.136Z,59.24
2023-05-13T09:49:37.504Z,60.03
2023-05-13T09:52:10.168Z,60.27
2023-05-13T09:54:40.457Z,61.36
2023-05-13T09:57:14.055Z,59.75
2023-05-13T09:59:42.865Z,59.07
2023-05-13T10:02:16.629Z,60.69
2023-05-13T10:04:45.865Z,60.25
2023-05-13T10:07:15.450Z,59.76
2023-05-13T10:09:47.201Z,60.85
2023-05-13T10:12:16.630Z,60.75
2023-05-13T10:14:45.549Z,59.18
2023-05-13T10:17:15.581Z,58.27
2023-05-13T10:19:44.938Z,57.96
2023-05-13T10:22:15.444Z,58.18
2023-05-13T10:24:45.930Z,58.08
2023-05-13T10:27:15.321Z,55.59
2023-05-13T10:29:45.607Z,57.57
2023-05-13T10:32:17.116Z,56.38
2023-05-13T10:34:47.730Z,57.62
2023-05-13T10:37:40.881Z,58.05
2023-05-13T10:40:34.159Z,56.59
2023-05-13T10:43:14.066Z,54.76
2023-05-13T10:45:47.318Z,55.18
2023-05-13T10:48:17.943Z,54.99
2023-05-13T10:50:55.396Z,55.63
2023-05-13T10:53:29.411Z,51.57
2023-05-13T10:56:01.254Z,55.37
2023-05-13T10:58:32.012Z,56.28
2023-05-13T11:01:17.695Z,54.91
2023-05-13T11:03:54.774Z,57.95
2023-05-13T11:06:31.196Z,56.42
2023-05-13T11:09:00.233Z,56.10
2023-05-13T11:11:34.203Z,56.47
2023-05-13T11:14:15.729Z,54.84
2023-05-13T11:17:41.847Z,55.71
2023-05-13T11:20:12.027Z,55.35
2023-05-13T11:25:14.244Z,54.77
2023-05-13T11:27:44.524Z,55.06
2023-05-13T11:30:24.502Z,56.22
2023-05-13T11:32:56.166Z,55.46
2023-05-13T11:35:28.771Z,56.85
2023-05-13T11:37:59.969Z,57.66
2023-05-13T11:40:32.906Z,54.81
2023-05-13T11:43:05.183Z,55.86
2023-05-13T11:45:34.567Z,54.46
2023-05-13T11:48:22.210Z,52.83
2023-05-13T11:50:52.040Z,54.76
2023-05-13T11:53:22.414Z,55.76
2023-05-13T11:55:51.807Z,57.49
2023-05-13T11:58:22.307Z,55.44
2023-05-13T12:00:51.987Z,54.81
2023-05-13T12:03:20.833Z,54.37
2023-05-13T12:05:51.373Z,56.01
2023-05-13T12:08:21.276Z,54.96
2023-05-13T12:10:53.569Z,52.53
2023-05-13T12:13:23.960Z,54.28
2023-05-13T12:15:53.552Z,55.57
2023-05-13T12:18:22.349Z,54.19
2023-05-13T12:20:51.710Z,56.27
2023-05-13T12:23:22.813Z,56.00
2023-05-13T12:25:51.948Z,53.59
2023-05-13T12:28:23.687Z,54.12
2023-05-13T12:30:54.805Z,57.60
2023-05-13T12:33:24.832Z,57.13
2023-05-13T12:35:55.353Z,55.21
2023-05-13T12:38:25.616Z,56.16
2023-05-13T12:40:55.117Z,55.97
2023-05-13T12:43:25.307Z,55.27
2023-05-13T12:45:55.736Z,55.55
2023-05-13T12:48:27.085Z,55.64
2023-05-13T12:51:00.113Z,53.92
2023-05-13T12:53:31.082Z,53.47
2023-05-13T12:56:00.127Z,52.89
2023-05-13T12:58:30.217Z,53.83
2023-05-13T13:01:01.294Z,54.19
2023-05-13T13:03:30.357Z,53.57
2023-05-13T13:05:59.191Z,55.17
2023-05-13T13:08:30.414Z,55.60
2023-05-13T13:11:00.716Z,54.48
2023-05-13T13:13:30.922Z,53.98
2023-05-13T13:15:59.982Z,54.87
2023-05-13T13:18:28.883Z,54.25
2023-05-13T13:20:57.683Z,54.74
2023-05-13T13:23:26.616Z,55.30
2023-05-13T13:25:55.426Z,55.54
2023-05-13T13:28:24.088Z,56.50
2023-05-13T13:30:54.218Z,54.82
2023-05-13T13:33:23.089Z,55.61
2023-05-13T13:35:51.906Z,53.96
2023-05-13T13:38:20.646Z,53.18
2023-05-13T13:40:52.406Z,55.44
2023-05-13T13:43:23.504Z,53.83
2023-05-13T13:45:52.384Z,56.74
2023-05-13T13:48:25.290Z,55.23
2023-05-13T13:50:59.667Z,54.89
2023-05-13T13:53:28.570Z,56.28
2023-05-13T13:55:57.461Z,54.77
2023-05-13T13:58:26.440Z,54.97
2023-05-13T14:00:57.523Z,54.27
2023-05-13T14:03:28.317Z,55.32
2023-05-13T14:05:57.237Z,55.45
2023-05-13T14:08:26.168Z,55.37
2023-05-13T14:10:54.993Z,55.75
2023-05-13T14:13:23.714Z,55.84
2023-05-13T14:15:52.408Z,56.81
2023-05-13T14:18:21.154Z,55.27
2023-05-13T14:20:51.425Z,55.13
2023-05-13T14:23:20.174Z,54.94
2023-05-13T14:25:49.075Z,53.50
2023-05-13T14:28:18.459Z,55.05
2023-05-13T14:30:47.246Z,54.25
2023-05-13T14:33:16.014Z,54.54
2023-05-13T14:35:44.796Z,55.46
2023-05-13T14:38:14.878Z,52.99
2023-05-13T14:40:43.706Z,54.51
2023-05-13T14:43:12.549Z,55.22
2023-05-13T14:46:12.672Z,54.14
2023-05-13T14:48:41.491Z,54.26
2023-05-13T14:51:12.375Z,53.48
2023-05-13T14:53:44.841Z,52.85
2023-05-13T14:56:13.699Z,53.63
2023-05-13T14:58:44.664Z,53.09
2023-05-13T15:01:13.467Z,51.23
2023-05-13T15:03:42.185Z,52.58
2023-05-13T15:06:11.142Z,51.73
2023-05-13T15:08:40.129Z,53.15
2023-05-13T15:11:10.393Z,52.93
2023-05-13T15:13:39.407Z,53.54
2023-05-13T15:16:08.645Z,52.33
2023-05-13T15:18:39.915Z,53.88
2023-05-13T15:21:08.612Z,54.54
2023-05-13T15:23:37.738Z,53.56
2023-05-13T15:26:06.478Z,53.61
2023-05-13T15:28:36.654Z,52.22
2023-05-13T15:31:05.724Z,51.76
2023-05-13T15:33:34.501Z,52.42
2023-05-13T15:36:03.394Z,51.80
2023-05-13T15:38:32.502Z,52.09
2023-05-13T15:41:03.497Z,50.36
2023-05-13T15:43:34.187Z,49.83
2023-05-13T15:46:04.664Z,49.89
2023-05-13T15:48:33.864Z,50.27
2023-05-13T15:51:03.783Z,49.07
2023-05-13T15:53:32.618Z,48.72
2023-05-13T15:56:01.373Z,49.29
2023-05-13T15:58:30.156Z,50.28
2023-05-13T16:00:59.583Z,50.68
2023-05-13T16:03:29.751Z,52.37
2023-05-13T16:05:58.509Z,52.82
2023-05-13T16:08:27.287Z,53.46
2023-05-13T16:10:56.023Z,52.70
2023-05-13T16:13:25.027Z,52.55
2023-05-13T16:15:54.190Z,51.89
2023-05-13T16:18:25.153Z,52.19
2023-05-13T16:20:55.488Z,52.67
2023-05-13T16:23:24.460Z,52.24
2023-05-13T16:25:53.220Z,51.54
2023-05-13T16:28:21.887Z,52.14
2023-05-13T16:30:51.382Z,52.79
2023-05-13T16:33:20.258Z,51.38
2023-05-13T16:35:51.319Z,52.60
2023-05-13T16:38:21.344Z,53.49
2023-05-13T16:40:50.431Z,54.10
2023-05-13T16:43:22.323Z,53.83
2023-05-13T16:45:51.765Z,53.49
2023-05-13T16:48:21.413Z,52.48
2023-05-13T16:50:51.358Z,53.88
2023-05-13T16:53:23.336Z,53.72
2023-05-13T16:55:52.496Z,53.01
2023-05-13T16:58:24.308Z,53.91
2023-05-13T17:00:53.469Z,53.84
2023-05-13T17:03:22.518Z,55.02
2023-05-13T17:05:51.401Z,54.00
2023-05-13T17:08:21.401Z,54.67
2023-05-13T17:10:51.532Z,53.67
2023-05-13T17:13:22.851Z,54.06
2023-05-13T17:15:53.859Z,54.70
2023-05-13T17:18:22.667Z,55.04
2023-05-13T17:20:51.461Z,54.13
2023-05-13T17:23:22.431Z,55.08
2023-05-13T17:25:52.645Z,56.02
2023-05-13T17:28:21.434Z,57.30
2023-05-13T17:30:52.550Z,58.45
2023-05-13T17:33:21.787Z,59.37
2023-05-13T17:35:50.792Z,60.02
2023-05-13T17:38:19.513Z,59.63
2023-05-13T17:40:48.433Z,58.61
2023-05-13T17:43:19.055Z,59.18
2023-05-13T17:45:48.025Z,61.04
2023-05-13T17:48:16.920Z,62.65
2023-05-13T17:50:48.112Z,63.01
2023-05-13T17:53:16.841Z,63.40
2023-05-13T17:55:48.931Z,63.81
2023-05-13T17:58:19.060Z,64.02
2023-05-13T18:00:48.294Z,64.16
2023-05-13T18:03:17.480Z,63.47
2023-05-13T18:05:46.306Z,64.11
2023-05-13T18:08:15.120Z,62.94
2023-05-13T18:10:44.042Z,64.23
2023-05-13T18:13:12.858Z,63.92
2023-05-13T18:15:43.241Z,64.31
2023-05-13T18:18:12.102Z,63.98
2023-05-13T18:20:42.126Z,64.05
2023-05-13T18:23:10.908Z,65.00
2023-05-13T18:25:48.815Z,65.25
2023-05-13T18:28:24.265Z,66.40
2023-05-13T18:30:54.495Z,66.65
2023-05-13T18:33:23.280Z,67.49
2023-05-13T18:35:53.249Z,67.37
2023-05-13T18:38:22.008Z,67.06
2023-05-13T18:40:50.850Z,66.88
2023-05-13T18:43:19.563Z,68.97
2023-05-13T18:45:48.361Z,70.21
2023-05-13T18:48:18.591Z,70.57
2023-05-13T18:50:47.382Z,71.35
2023-05-13T18:53:16.123Z,71.69
2023-05-13T18:55:44.863Z,72.93
2023-05-13T18:58:13.568Z,72.25
2023-05-13T19:00:42.539Z,74.06
2023-05-13T19:03:11.459Z,74.37
2023-05-13T19:05:41.753Z,75.10
2023-05-13T19:08:10.512Z,75.14
2023-05-13T19:10:40.435Z,75.55
2023-05-13T19:13:09.497Z,75.80
2023-05-13T19:15:38.402Z,76.44
2023-05-13T19:18:07.317Z,76.76
2023-05-13T19:20:36.230Z,76.63
2023-05-13T19:23:06.419Z,75.22
2023-05-13T19:25:42.112Z,77.12
2023-05-13T19:28:13.360Z,77.86
2023-05-13T19:30:42.880Z,78.11
2023-05-13T19:33:11.734Z,78.64
2023-05-13T19:35:44.592Z,80.88
2023-05-13T19:38:16.789Z,80.25
2023-05-13T19:40:46.085Z,80.37
2023-05-13T19:43:15.315Z,79.42
2023-05-13T19:45:44.052Z,80.35
2023-05-13T19:48:13.997Z,81.05
2023-05-13T19:50:42.776Z,82.06
2023-05-13T19:53:11.518Z,82.21
2023-05-13T19:55:41.737Z,82.82
2023-05-13T19:58:10.473Z,83.04
2023-05-13T20:00:39.323Z,84.15
2023-05-13T20:03:08.394Z,83.91
2023-05-13T20:05:37.272Z,85.04
2023-05-13T20:08:06.432Z,85.43
2023-05-13T20:10:36.783Z,85.44
2023-05-13T20:13:07.993Z,85.66
2023-05-13T20:15:36.986Z,85.74
2023-05-13T20:18:06.090Z,85.87
2023-05-13T20:20:35.524Z,86.20
2023-05-13T20:23:04.338Z,85.78
2023-05-13T20:25:33.091Z,85.48
2023-05-13T20:28:04.125Z,85.60
2023-05-13T20:30:35.652Z,85.44
2023-05-13T20:33:09.103Z,85.45
2023-05-13T20:35:38.350Z,85.71
2023-05-13T20:38:07.305Z,86.00
2023-05-13T20:40:36.280Z,85.77
2023-05-13T20:43:07.521Z,86.10
2023-05-13T20:45:39.756Z,86.54
2023-05-13T20:48:11.049Z,86.22
2023-05-13T20:50:39.783Z,86.42
2023-05-13T20:53:11.362Z,86.10
2023-05-13T20:55:42.316Z,87.08
2023-05-13T20:58:12.166Z,87.52
2023-05-13T21:00:42.383Z,88.32
2023-05-13T21:03:11.595Z,88.22
2023-05-13T21:05:40.556Z,88.76
2023-05-13T21:08:09.357Z,88.99
2023-05-13T21:10:38.293Z,89.08
2023-05-13T21:13:07.253Z,88.79
2023-05-13T21:15:38.503Z,89.84
2023-05-13T21:18:08.869Z,90.43
2023-05-13T21:20:37.703Z,91.38
2023-05-13T21:23:06.487Z,92.13
2023-05-13T21:25:35.284Z,92.19
2023-05-13T21:28:05.615Z,92.64
2023-05-13T21:30:34.368Z,92.62
2023-05-13T21:33:03.247Z,93.14
2023-05-13T21:35:33.406Z,93.03
2023-05-13T21:38:12.112Z,93.92
2023-05-13T21:40:44.502Z,94.19
2023-05-13T21:43:13.505Z,94.60
2023-05-13T21:45:42.392Z,95.41
2023-05-13T21:48:11.359Z,95.92
2023-05-13T21:50:41.791Z,96.22
2023-05-13T21:53:11.817Z,97.42
2023-05-13T21:55:40.888Z,97.43
2023-05-13T21:58:09.656Z,97.82
2023-05-13T22:00:38.383Z,97.66
2023-05-13T22:03:07.473Z,98.31
2023-05-13T22:05:42.298Z,97.91
2023-05-13T22:08:14.911Z,98.54
2023-05-13T22:10:43.846Z,98.55
2023-05-13T22:13:12.669Z,98.45
2023-05-13T22:15:41.820Z,99.20
2023-05-13T22:18:10.811Z,100.00
2023-05-13T22:20:39.556Z,100.00
2023-05-13T22:23:08.790Z,100.00
2023-05-13T22:25:39.163Z,100.00
2023-05-13T22:28:12.275Z,99.96
2023-05-13T22:30:40.874Z,100.00
2023-05-13T22:33:09.672Z,100.00
2023-05-13T22:35:39.588Z,100.00
2023-05-13T22:38:08.662Z,100.00
2023-05-13T22:40:39.217Z,99.91
2023-05-13T22:43:08.093Z,100.00
2023-05-13T22:45:38.146Z,100.00
2023-05-13T22:48:08.206Z,100.00
2023-05-13T22:50:37.038Z,100.00
2023-05-13T22:53:05.848Z,100.00
2023-05-13T22:55:34.764Z,100.00
2023-05-13T22:58:05.217Z,100.00
2023-05-13T23:00:34.082Z,100.00
2023-05-13T23:03:02.969Z,100.00
2023-05-13T23:05:31.902Z,100.00
2023-05-13T23:08:00.758Z,100.00
2023-05-13T23:10:30.047Z,100.00
2023-05-13T23:12:58.964Z,99.40
2023-05-13T23:15:29.126Z,100.00
2023-05-13T23:17:58.191Z,100.00
2023-05-13T23:20:29.194Z,100.00
2023-05-13T23:22:58.107Z,100.00
2023-05-13T23:25:29.409Z,100.00
2023-05-13T23:27:58.382Z,100.00
2023-05-13T23:30:28.467Z,100.00
2023-05-13T23:32:59.679Z,100.00
2023-05-13T23:35:28.692Z,100.00
2023-05-13T23:37:57.856Z,100.00
2023-05-13T23:40:26.794Z,100.00
2023-05-13T23:42:55.696Z,100.00
2023-05-13T23:45:24.586Z,100.00
2023-05-13T23:47:54.810Z,100.00
2023-05-13T23:50:24.289Z,100.00
2023-05-13T23:52:53.104Z,100.00
2023-05-13T23:55:22.243Z,100.00
2023-05-13T23:57:53.523Z,100.00
